Flight Track Log - Related Links

Times and Time Zones

All times are in EDT time to prevent confusion due to time zone crossing. See the UAL1208 flight status page for this flight to view local times or setup timezone preferences in your user account.

Time Position Orientation Groundspeed Altitude Reporting Facility
EDT Latitude Longitude Course Direction KTS MPH feet Rate Location/Type
Wed 07:43:19 AM 29.9594 -95.3414 261° West 161 185 800  Level Houston Center
Wed 07:44:44 AM 29.9506 -95.4053 261° West 250 288 4,300 3,053 Climbing Houston Center
Wed 07:46:10 AM 30.0258 -95.4767 321° Northwest 277 319 9,500 3,184 Climbing Houston Center
Wed 07:47:11 AM 30.1061 -95.5033 344° North 295 339 12,100 3,049 Climbing Houston Center
Wed 07:48:12 AM 30.1978 -95.5358 343° North 332 382 15,700 3,148 Climbing Houston Center
Wed 07:49:13 AM 30.2942 -95.5700 343° North 352 405 18,500 2,803 Climbing Houston Center
Wed 07:50:14 AM 30.3961 -95.6039 344° North 373 429 21,400 2,902 Climbing Houston Center
Wed 07:51:15 AM 30.5233 -95.6456 344° North 391 450 24,400 2,557 Climbing Houston Center
Wed 07:52:16 AM 30.6256 -95.7011 335° Northwest 408 470 26,600 2,098 Climbing Houston Center
Wed 07:53:18 AM 30.7364 -95.7608 335° Northwest 422 486 28,700 2,000 Climbing Houston Center
Wed 07:54:19 AM 30.8464 -95.8183 336° Northwest 431 496 30,700 1,918 Climbing Houston Center
Wed 07:55:20 AM 30.9572 -95.8783 335° Northwest 435 501 32,600 1,820 Climbing Houston Center
Wed 07:56:21 AM 31.0686 -95.9381 335° Northwest 438 504 34,400 1,869 Climbing Houston Center
Wed 07:57:22 AM 31.1803 -95.9903 338° Northwest 433 498 36,400 1,721 Climbing Houston Center
Wed 07:58:23 AM 31.2919 -96.0325 342° North 423 487 37,900 787 Climbing Houston Center
Wed 07:59:24 AM 31.4039 -96.0753 342° North 421 484 38,000 49 Climbing Houston Center
Wed 08:00:25 AM 31.5119 -96.1167 342° North 419 482 38,000  Level Houston Center
Wed 08:01:26 AM 31.6242 -96.1608 341° North 420 483 38,000  Level Houston Center
Wed 08:02:27 AM 31.7353 -96.2050 341° North 419 482 38,000  Level Houston Center
Wed 08:03:34 AM 31.8700 -96.2611 341° North 416 479 38,000  Level Fort Worth Center
Wed 08:04:34 AM 31.9831 -96.3039 342° North 411 473 38,000  Level Fort Worth Center
Wed 08:05:34 AM 32.0939 -96.3467 342° North 411 473 38,000  Level Fort Worth Center
Wed 08:06:34 AM 32.1989 -96.4019 336° Northwest 411 473 38,000  Level Fort Worth Center
Wed 08:07:34 AM 32.2853 -96.4942 318° Northwest 410 472 38,000  Level Fort Worth Center
Wed 08:08:34 AM 32.3694 -96.5894 316° Northwest 415 478 38,000  Level Fort Worth Center
Wed 08:09:34 AM 32.4514 -96.6822 316° Northwest 415 478 38,000  Level Fort Worth Center
Wed 08:10:34 AM 32.5375 -96.7775 317° Northwest 415 478 38,000  Level Fort Worth Center
Wed 08:11:34 AM 32.6025 -96.8536 315° West 415 478 38,000  Level Fort Worth Center
Wed 08:12:34 AM 32.6928 -96.9567 316° Northwest 409 471 38,000  Level Fort Worth Center
Wed 08:13:34 AM 32.7786 -97.0503 317° Northwest 415 478 38,000  Level Fort Worth Center
Wed 08:14:34 AM 32.8708 -97.1586 315° West 415 478 38,000  Level Fort Worth Center
Wed 08:15:34 AM 32.9439 -97.2475 314° West 415 478 38,000  Level Fort Worth Center
Wed 08:16:34 AM 33.0294 -97.3589 313° West 434 499 38,000  Level Fort Worth Center
Wed 08:17:34 AM 33.1047 -97.4531 314° West 434 499 38,000  Level Fort Worth Center
Wed 08:18:34 AM 33.1839 -97.5550 313° West 424 488 38,000  Level Fort Worth Center
Wed 08:19:34 AM 33.2631 -97.6544 314° West 419 482 38,000  Level Fort Worth Center
Wed 08:20:34 AM 33.3506 -97.7667 313° West 419 482 38,000  Level Fort Worth Center
Wed 08:21:34 AM 33.4294 -97.8664 313° West 424 488 38,000  Level Fort Worth Center
Wed 08:22:34 AM 33.5083 -97.9664 313° West 419 482 38,000  Level Fort Worth Center
Wed 08:23:34 AM 33.5894 -98.0692 313° West 419 482 38,000  Level Fort Worth Center
Wed 08:24:34 AM 33.6661 -98.1722 312° West 419 482 38,000  Level Fort Worth Center
Wed 08:25:34 AM 33.7425 -98.2728 312° West 419 482 38,000  Level Fort Worth Center
Wed 08:26:34 AM 33.8211 -98.3711 314° West 419 482 38,000  Level Fort Worth Center
Wed 08:27:34 AM 33.8975 -98.4694 313° West 414 476 38,000  Level Fort Worth Center
Wed 08:28:34 AM 33.9739 -98.5706 312° West 409 471 38,000  Level Fort Worth Center
Wed 08:29:34 AM 34.0164 -98.6939 293° West 398 458 38,000  Level Fort Worth Center
Wed 08:30:34 AM 34.0442 -98.8297 284° West 398 458 38,000  Level Fort Worth Center
Wed 08:31:34 AM 34.0636 -98.9628 280° West 398 458 38,000 450 Level Fort Worth Center
Wed 08:32:34 AM 34.0831 -99.0711 282° West 409 471 38,900 1,000 Climbing Fort Worth Center
Wed 08:33:34 AM 34.1119 -99.2372 282° West 417 480 40,000 550 Climbing Fort Worth Center
Wed 08:34:34 AM 34.1350 -99.3756 281° West 417 480 40,000  Level Fort Worth Center
Wed 08:35:34 AM 34.1578 -99.5142 281° West 417 480 40,000  Level Fort Worth Center
Wed 08:36:34 AM 34.1783 -99.6528 280° West 417 480 40,000  Level Fort Worth Center
Wed 08:37:34 AM 34.2028 -99.7942 282° West 422 486 40,000  Level Fort Worth Center
Wed 08:38:34 AM 34.2253 -99.9303 281° West 422 486 40,000  Level Fort Worth Center
Wed 08:39:34 AM 34.2475 -100.0642 281° West 422 486 40,000  Level Fort Worth Center
Wed 08:40:34 AM 34.2694 -100.2056 281° West 422 486 40,000  Level Fort Worth Center
Wed 08:41:34 AM 34.2914 -100.3419 281° West 422 486 40,000  Level Fort Worth Center
Wed 08:42:34 AM 34.3131 -100.4811 281° West 422 486 40,000  Level Fort Worth Center
Wed 08:43:34 AM 34.3347 -100.6175 281° West 422 486 40,000  Level Fort Worth Center
Wed 08:44:34 AM 34.3539 -100.7542 280° West 422 486 40,000  Level Fort Worth Center
Wed 08:45:34 AM 34.3772 -100.8933 282° West 422 486 40,000  Level Fort Worth Center
Wed 08:46:26 AM 34.3928 -101.0028 280° West 415 478 40,000  Level Albuquerque Center
Wed 08:47:27 AM 34.4133 -101.1411 280° West 416 479 40,000  Level Albuquerque Center
Wed 08:48:27 AM 34.4336 -101.2769 280° West 413 475 40,000  Level Albuquerque Center
Wed 08:49:28 AM 34.4539 -101.4136 280° West 411 473 40,000  Level Albuquerque Center
Wed 08:50:29 AM 34.4742 -101.5514 280° West 413 475 40,000  Level Albuquerque Center
Wed 08:51:29 AM 34.4939 -101.6869 280° West 411 473 40,000  Level Albuquerque Center
Wed 08:52:30 AM 34.5136 -101.8228 280° West 409 471 40,000  Level Albuquerque Center
Wed 08:53:31 AM 34.5333 -101.9586 280° West 408 470 40,000  Level Albuquerque Center
Wed 08:54:31 AM 34.5517 -102.0950 279° West 409 471 40,000  Level Albuquerque Center
Wed 08:55:32 AM 34.5717 -102.2317 280° West 410 472 40,000  Level Albuquerque Center
Wed 08:56:33 AM 34.5914 -102.3686 280° West 411 473 40,000  Level Albuquerque Center
Wed 08:57:34 AM 34.6097 -102.5042 279° West 408 470 40,000  Level Albuquerque Center
Wed 08:58:34 AM 34.6292 -102.6425 280° West 413 475 40,000  Level Albuquerque Center
Wed 08:59:35 AM 34.6492 -102.7856 280° West 412 474 40,000  Level Albuquerque Center
Wed 09:00:36 AM 34.6681 -102.9250 279° West 414 476 40,000  Level Albuquerque Center
Wed 09:01:37 AM 34.6853 -103.0633 279° West 412 474 40,000  Level Albuquerque Center
Wed 09:02:37 AM 34.7044 -103.2017 280° West 411 473 40,000  Level Albuquerque Center
Wed 09:03:38 AM 34.7233 -103.3408 279° West 413 475 40,000  Level Albuquerque Center
Wed 09:04:39 AM 34.7419 -103.4822 279° West 418 481 40,000  Level Albuquerque Center
Wed 09:05:39 AM 34.7597 -103.6219 279° West 416 479 40,000  Level Albuquerque Center
Wed 09:06:40 AM 34.7772 -103.7625 279° West 415 478 40,000  Level Albuquerque Center
Wed 09:07:41 AM 34.7958 -103.9033 279° West 416 479 40,000  Level Albuquerque Center
Wed 09:08:42 AM 34.8131 -104.0447 278° West 417 480 40,000  Level Albuquerque Center
Wed 09:09:43 AM 34.8314 -104.1869 279° West 418 481 40,000  Level Albuquerque Center
Wed 09:10:43 AM 34.8478 -104.3308 278° West 421 484 40,000  Level Albuquerque Center
Wed 09:11:44 AM 34.8656 -104.4744 279° West 422 486 40,000  Level Albuquerque Center
Wed 09:12:45 AM 34.8831 -104.6189 278° West 424 488 40,000  Level Albuquerque Center
Wed 09:13:46 AM 34.9014 -104.7633 279° West 426 490 40,000  Level Albuquerque Center
Wed 09:14:47 AM 34.9189 -104.9078 278° West 426 490 40,000  Level Albuquerque Center
Wed 09:15:48 AM 34.9361 -105.0522 278° West 426 490 40,000  Level Albuquerque Center
Wed 09:16:49 AM 34.9531 -105.1975 278° West 428 493 40,000  Level Albuquerque Center
Wed 09:17:50 AM 34.9697 -105.3422 278° West 427 491 40,000  Level Albuquerque Center
Wed 09:18:51 AM 34.9872 -105.4881 278° West 429 494 40,000  Level Albuquerque Center
Wed 09:19:52 AM 35.0042 -105.6336 278° West 430 495 40,000  Level Albuquerque Center
Wed 09:20:53 AM 35.0189 -105.7792 277° West 429 494 40,000  Level Albuquerque Center
Wed 09:21:54 AM 35.0344 -105.9189 278° West 428 493 40,000  Level Albuquerque Center
Wed 09:22:55 AM 35.0489 -106.0617 277° West 427 491 40,000  Level Albuquerque Center
Wed 09:23:56 AM 35.0675 -106.2328 278° West 425 489 40,000  Level Albuquerque Center
Wed 09:24:57 AM 35.0836 -106.3775 278° West 430 495 40,000  Level Albuquerque Center
Wed 09:25:58 AM 35.0989 -106.5222 277° West 432 497 40,000  Level Albuquerque Center
Wed 09:26:59 AM 35.1133 -106.6647 277° West 434 499 40,000  Level Albuquerque Center
Wed 09:28:00 AM 35.1319 -106.8275 278° West 434 499 40,000  Level Albuquerque Center
Wed 09:29:01 AM 35.1444 -106.9678 276° West 434 499 40,000  Level Albuquerque Center
Wed 09:30:02 AM 35.1592 -107.1081 277° West 432 497 40,000  Level Albuquerque Center
Wed 09:31:03 AM 35.1719 -107.2436 277° West 442 509 40,000  Level Albuquerque Center
Wed 09:32:04 AM 35.1889 -107.4219 277° West 443 510 40,000  Level Albuquerque Center
Wed 09:33:05 AM 35.2014 -107.5611 276° West 443 510 40,000  Level Albuquerque Center
Wed 09:34:06 AM 35.2172 -107.7283 277° West 443 510 40,000  Level Albuquerque Center
Wed 09:35:07 AM 35.2306 -107.8728 276° West 445 512 40,000  Level Albuquerque Center
Wed 09:36:08 AM 35.2447 -108.0183 277° West 448 516 40,000  Level Albuquerque Center
Wed 09:37:09 AM 35.2600 -108.1867 276° West 445 512 40,000  Level Albuquerque Center
Wed 09:38:10 AM 35.2731 -108.3319 276° West 446 513 40,000  Level Albuquerque Center
Wed 09:39:11 AM 35.2858 -108.4758 276° West 444 511 40,000  Level Albuquerque Center
Wed 09:40:12 AM 35.3019 -108.6444 277° West 445 512 40,000  Level Albuquerque Center
Wed 09:41:14 AM 35.3133 -108.7886 276° West 443 510 40,000  Level Albuquerque Center
Wed 09:42:15 AM 35.3261 -108.9319 276° West 441 507 40,000  Level Albuquerque Center
Wed 09:43:16 AM 35.3406 -109.0994 276° West 441 507 40,000  Level Albuquerque Center
Wed 09:44:17 AM 35.3525 -109.2428 276° West 439 505 40,000  Level Albuquerque Center
Wed 09:45:18 AM 35.3642 -109.3853 276° West 438 504 40,000  Level Albuquerque Center
Wed 09:46:20 AM 35.3781 -109.5531 276° West 441 507 40,000  Level Albuquerque Center
Wed 09:47:21 AM 35.3886 -109.6939 275° West 437 503 40,000  Level Albuquerque Center
Wed 09:48:22 AM 35.4006 -109.8572 275° West 431 496 40,000  Level Albuquerque Center
Wed 09:49:23 AM 35.4106 -109.9969 275° West 430 495 40,000  Level Albuquerque Center
Wed 09:50:25 AM 35.4192 -110.1386 274° West 433 498 40,000  Level Albuquerque Center
Wed 09:51:26 AM 35.4322 -110.3017 276° West 431 496 40,000  Level Albuquerque Center
Wed 09:52:27 AM 35.4408 -110.4433 274° West 433 498 40,000  Level Albuquerque Center
Wed 09:53:29 AM 35.4503 -110.5822 275° West 430 495 40,000  Level Albuquerque Center
Wed 09:54:30 AM 35.4619 -110.7467 275° West 432 497 40,000  Level Albuquerque Center
Wed 09:55:31 AM 35.4728 -110.8861 275° West 430 495 40,000 -439 Level Albuquerque Center
Wed 09:56:33 AM 35.4825 -111.0469 274° West 426 490 39,100 -1,659 Descending Albuquerque Center
Wed 09:57:34 AM 35.4914 -111.1853 275° West 424 488 36,600 -2,683 Descending Albuquerque Center
Wed 09:58:36 AM 35.5019 -111.3283 275° West 434 499 33,600 -3,073 Descending Albuquerque Center
Wed 09:59:37 AM 35.5117 -111.4867 274° West 454 522 30,300 -1,756 Descending Albuquerque Center
Wed 10:00:39 AM 35.5219 -111.6469 275° West 469 540 30,000 -146 Descending Albuquerque Center
Wed 10:01:40 AM 35.5333 -111.8383 274° West 472 543 30,000  Level Albuquerque Center
Wed 10:02:13 AM 35.5378 -111.9019 275° West 471 542 30,000 -189 Level Los Angeles Center
Wed 10:03:15 AM 35.5467 -112.0619 274° West 472 543 29,700 -726 Descending Los Angeles Center
Wed 10:04:17 AM 35.5578 -112.2528 274° West 471 542 28,500 -829 Descending Los Angeles Center
Wed 10:05:18 AM 35.5647 -112.3778 274° West 466 536 28,000 -634 Descending Los Angeles Center
Wed 10:06:20 AM 35.5750 -112.5642 274° West 460 529 27,200 -871 Descending Los Angeles Center
Wed 10:07:22 AM 35.5847 -112.7275 274° West 451 519 26,200 -1,038 Descending Los Angeles Center
Wed 10:09:25 AM 35.6006 -113.0467 274° West 447 514 24,000 -714 Descending Los Angeles Center
Wed 10:10:27 AM 35.6075 -113.1956 273° West 439 505 24,000  Level Los Angeles Center
Wed 10:11:29 AM 35.6142 -113.3339 273° West 434 499 24,000  Level Los Angeles Center
Wed 10:12:31 AM 35.6219 -113.4789 274° West 431 496 24,000 -309 Level Los Angeles Center
Wed 10:13:45 AM 35.6444 -113.6833 278° West 434 499 23,300 -1,368 Descending Los Angeles Center
Wed 10:14:47 AM 35.6636 -113.8233 280° West 423 487 20,900 -2,323 Descending Los Angeles Center
Wed 10:15:49 AM 35.6836 -113.9586 280° West 407 468 18,500 -2,400 Descending Los Angeles Center
Wed 10:16:27 AM 35.6969 -114.0489 280° West 403 464 16,900 -2,296 Descending Los Angeles Center
Wed 10:17:10 AM 35.7058 -114.1256 278° West 395 455 15,400 -2,329 Descending Los Angeles Center
Wed 10:17:52 AM 35.7203 -114.2267 280° West 374 430 13,600 -1,686 Descending Los Angeles Center
Wed 10:19:11 AM 35.7503 -114.3789 284° West 345 397 12,000 -774 Descending Los Angeles Center
Wed 10:19:56 AM 35.7992 -114.4089 North 314 361 12,000 -103 Level Los Angeles Center
Wed 10:20:00 AM 35.8642 -114.4333 North  Level FlightAware Approximate
Wed 10:21:07 AM 35.8956 -114.4572 338° Northwest 297 342 11,800  Level Los Angeles Center
Wed 10:22:08 AM 35.9706 -114.4931 339° North 293 337 10,500 -947 Descending Los Angeles Center
Wed 10:23:01 AM 36.0244 -114.5150 342° North 286 329 10,000 -417 Descending Los Angeles Center
Wed 10:24:03 AM 36.0517 -114.6092 290° West 250 288 9,700 -726 Descending Los Angeles Center
Wed 10:25:05 AM 36.0667 -114.6906 283° West 245 282 8,500 -1,172 Descending Los Angeles Center
Wed 10:26:11 AM 36.0725 -114.7861 274° West 253 291 7,200 -1,161 Descending Los Angeles Center
Wed 10:27:09 AM 36.0747 -114.8586 272° West 243 280 6,100 -1,200 Descending Los Angeles Center
Wed 10:28:11 AM 36.0739 -114.9439 269° West 246 283 4,800 -1,258 Descending Los Angeles Center

Login

Don't have an account? Register now (free) for customized features, flight alerts, and more!